XK102 / F-GRPJ 7700 Squawk Report (15th of July, 2020)

Aircraft AT75 Reg No. F-GRPJ Age 14 years old
Model ATR 72 Turboprop engines 2 First flight 09-12-05
Registered 10-10 Rollout 11-05 Delivered 23-12-05
Construction No. 724 Line No. N/A Series 212A
ADSHEX 3945E9 Airline name Air Corsica Owner Kaliste Prop
Airfield based Ajaccio~Corse du Sud~F First tracked N/A

Flight history for F-GRPJ

Route Flight No Date Playback
Sud Corse (FSC) - Cote D Azur (NCE) XK402 2020-08-08 09:21:00
Cote D Azur (NCE) - Sud Corse (FSC) XK401 2020-08-08 08:36:00
Campo Dell Oro (AJA) - Cote D Azur (NCE) XK102 2020-08-08 06:57:00
???? N/A 2020-08-07 18:20:00
???? N/A 2020-08-07 16:45:00
???? N/A 2020-08-07 15:01:00
Sud Corse (FSC) - Provence (MRS) XK590 2020-08-07 13:26:00
???? N/A 2020-08-07 12:31:00
Sud Corse (FSC) - Cote D Azur (NCE) XK582 2020-08-07 10:49:00
Provence (MRS) - Sud Corse (FSC) XK451 2020-08-07 09:06:00
Sud Corse (FSC) - Provence (MRS) XK450 2020-08-07 06:05:00
Provence (MRS) - Sud Corse (FSC) XK457 2020-08-07 05:08:00
Sud Corse (FSC) - Provence (MRS) XK456 2020-08-06 17:34:00
Cote D Azur (NCE) - Sud Corse (FSC) XK585 2020-08-06 16:35:00
???? N/A 2020-08-06 14:55:00
???? N/A 2020-08-06 13:19:00
Sud Corse (FSC) - Cote D Azur (NCE) XK582 2020-08-06 10:55:00
Provence (MRS) - Sud Corse (FSC) XK451 2020-08-06 08:23:00
Sud Corse (FSC) - Provence (MRS) XK450 2020-08-06 06:00:00
Provence (MRS) - Sud Corse (FSC) XK457 2020-08-06 05:05:00
Time Lat Lon Altitude Heading Speed Vertical Rate
2020-07-15 18:13:41 GMT 43.663479 7.205690 0 28 5 0
2020-07-15 18:13:17 GMT 43.663101 7.206377 0 275 11 0
2020-07-15 18:13:13 GMT 43.663078 7.206648 0 278 12 0
2020-07-15 18:13:03 GMT 43.663021 7.207522 0 261 15 0
2020-07-15 18:12:52 GMT 43.663158 7.208740 0 258 17 0
2020-07-15 18:12:43 GMT 43.663227 7.209634 0 275 19 0
2020-07-15 18:12:21 GMT 43.663330 7.212093 0 272 18 0
2020-07-15 18:12:13 GMT 43.663368 7.213031 0 261 17 0
2020-07-15 18:12:03 GMT 43.663498 7.214045 0 258 16 0
2020-07-15 18:11:55 GMT 43.663696 7.214781 0 247 15 0
2020-07-15 18:11:43 GMT 43.663475 7.215745 0 315 15 0
2020-07-15 18:11:34 GMT 43.663055 7.216309 0 315 13 0
2020-07-15 18:11:22 GMT 43.662632 7.216884 0 315 11 0
2020-07-15 18:11:12 GMT 43.662289 7.217363 0 303 10 0
2020-07-15 18:11:02 GMT 43.662064 7.217854 0 340 9 0
2020-07-15 18:10:51 GMT 43.661598 7.217527 0 45 30 0
2020-07-15 18:10:41 GMT 43.659920 7.215191 0 45 72 0
2020-07-15 18:10:31 GMT 43.657154 7.211494 100 42 94 0
2020-07-15 18:10:21 GMT 43.653809 7.206840 100 45 107 -512
2020-07-15 18:10:10 GMT 43.650078 7.201734 175 45 108 -448
2020-07-15 18:10:01 GMT 43.646759 7.197067 275 45 108 -640
2020-07-15 18:09:52 GMT 43.643417 7.192468 375 45 107 -384
2020-07-15 18:09:40 GMT 43.639481 7.187039 450 43 109 -384
2020-07-15 18:09:30 GMT 43.635590 7.181865 525 45 112 -384
2020-07-15 18:09:20 GMT 43.631882 7.176627 625 45 113 -704
2020-07-15 18:09:10 GMT 43.627945 7.171326 800 43 120 -1152
2020-07-15 18:08:59 GMT 43.623550 7.165130 900 47 129 -384
2020-07-15 18:08:48 GMT 43.619076 7.159228 950 32 133 -448
2020-07-15 18:08:41 GMT 43.614853 7.156315 1,000 18 129 -320
2020-07-15 18:08:38 GMT 43.613617 7.155740 1,000 15 129 -320
2020-07-15 18:08:28 GMT 43.607391 7.154258 1,050 4 133 -512
2020-07-15 18:08:19 GMT 43.601196 7.153669 1,150 2 136 -896
2020-07-15 18:08:08 GMT 43.594822 7.153473 1,275 0 139 -896
2020-07-15 18:08:00 GMT 43.589699 7.153408 1,425 0 141 -896
2020-07-15 18:07:50 GMT 43.583138 7.153604 1,675 358 142 -960
2020-07-15 18:07:39 GMT 43.575783 7.154127 1,775 357 141 -1088
2020-07-15 18:07:29 GMT 43.569077 7.154655 1,900 357 143 -768
2020-07-15 18:07:18 GMT 43.562283 7.155304 2,025 357 145 -704
2020-07-15 18:07:09 GMT 43.555111 7.155958 2,150 357 150 -704
2020-07-15 18:06:58 GMT 43.548080 7.156612 2,275 356 151 0
2020-07-15 18:06:50 GMT 43.542206 7.157273 2,375 356 146 -704
2020-07-15 18:06:47 GMT 43.540958 7.157397 2,400 356 144 -640
2020-07-15 18:06:38 GMT 43.534744 7.158168 2,500 355 137 -576
2020-07-15 18:06:27 GMT 43.527878 7.158835 2,625 357 137 -768
2020-07-15 18:06:18 GMT 43.521835 7.159317 2,750 357 144 -768
2020-07-15 18:06:07 GMT 43.514648 7.159828 2,900 357 151 -832
2020-07-15 18:05:58 GMT 43.507721 7.160274 3,025 358 149 -128
2020-07-15 18:05:49 GMT 43.501949 7.160666 3,025 358 149 0
2020-07-15 18:05:46 GMT 43.500275 7.160732 3,025 358 149 0
2020-07-15 18:05:37 GMT 43.493820 7.161234 3,025 358 146 0
2020-07-15 18:05:26 GMT 43.486404 7.161681 3,000 358 146 64
2020-07-15 18:05:16 GMT 43.479836 7.162236 3,025 356 156 -64
2020-07-15 18:05:06 GMT 43.471985 7.163533 3,025 351 161 -64
2020-07-15 18:04:56 GMT 43.465172 7.166029 3,025 339 161 -128
2020-07-15 18:04:47 GMT 43.458206 7.170942 3,025 325 171 0
2020-07-15 18:04:36 GMT 43.451889 7.177969 3,025 320 188 192
2020-07-15 18:04:26 GMT 43.444839 7.186017 3,025 321 204 -384
2020-07-15 18:04:16 GMT 43.437008 7.194868 3,100 321 213 -1216
2020-07-15 18:04:07 GMT 43.427536 7.205498 3,450 321 220 -1536
2020-07-15 18:03:55 GMT 43.421082 7.212652 3,675 322 227 -1472
2020-07-15 18:03:46 GMT 43.412704 7.221978 3,925 321 235 -1536
2020-07-15 18:03:37 GMT 43.405563 7.229962 4,150 321 237 -1536
2020-07-15 18:03:34 GMT 43.403320 7.232389 4,200 321 237 -1536
2020-07-15 18:03:25 GMT 43.395531 7.241102 4,425 321 238 -1600
2020-07-15 18:03:15 GMT 43.386566 7.251040 4,700 321 239 -1536
2020-07-15 18:03:05 GMT 43.377842 7.260720 4,950 322 240 -1472
2020-07-15 18:02:55 GMT 43.369183 7.270268 5,200 322 241 -1536
2020-07-15 18:02:44 GMT 43.360291 7.280143 5,450 321 242 -1536
2020-07-15 18:02:35 GMT 43.351273 7.290259 5,725 321 243 -1536
2020-07-15 18:02:24 GMT 43.342319 7.300415 5,975 321 245 -1536
2020-07-15 18:02:19 GMT 43.338318 7.304993 6,100 321 245 -1536
2020-07-15 18:02:14 GMT 43.333664 7.310290 6,225 321 246 -1600
2020-07-15 18:02:10 GMT 43.329987 7.314475 6,350 321 247 -1536
2020-07-15 18:02:04 GMT 43.324909 7.320295 6,425 321 247 -1600
2020-07-15 18:01:56 GMT 43.317928 7.328339 6,675 320 249 -1536
2020-07-15 18:01:53 GMT 43.315601 7.330954 6,750 320 249 -1472
2020-07-15 18:01:46 GMT 43.306709 7.341221 7,000 320 252 -1408
2020-07-15 18:01:36 GMT 43.295628 7.354039 7,300 320 256 -1408
2020-07-15 18:01:26 GMT 43.291397 7.358987 7,450 320 259 -1728
2020-07-15 18:01:23 GMT 43.288414 7.362409 7,525 320 259 -1856
2020-07-15 18:01:16 GMT 43.281647 7.370165 7,750 320 259 -1920
2020-07-15 18:01:05 GMT 43.271942 7.381280 8,125 321 260 -2112
2020-07-15 18:01:02 GMT 43.269188 7.384382 8,225 321 260 -1920
2020-07-15 18:00:55 GMT 43.262558 7.391883 8,450 321 260 -1856
2020-07-15 18:00:50 GMT 43.256332 7.398973 8,675 321 262 -2048
2020-07-15 18:00:45 GMT 43.253220 7.402496 8,775 321 262 -1984
2020-07-15 18:00:42 GMT 43.250473 7.405616 8,875 321 262 -1920
2020-07-15 18:00:35 GMT 43.243351 7.413679 9,125 321 265 -1984
2020-07-15 18:00:30 GMT 43.239258 7.418263 9,275 321 266 -1984
2020-07-15 18:00:25 GMT 43.234268 7.423883 9,450 321 267 -1984
2020-07-15 18:00:22 GMT 43.231155 7.427346 9,550 321 267 -2048
2020-07-15 18:00:14 GMT 43.224079 7.435325 9,800 321 268 -1920
2020-07-15 18:00:11 GMT 43.221004 7.438790 9,900 321 269 -1728
2020-07-15 18:00:04 GMT 43.213852 7.446942 10,125 321 269 -1600
2020-07-15 17:59:55 GMT 43.204807 7.457166 10,375 321 271 -1728
2020-07-15 17:59:50 GMT 43.199547 7.463117 10,550 321 273 -1728
2020-07-15 17:59:44 GMT 43.195076 7.468218 10,675 321 274 -1728
2020-07-15 17:59:40 GMT 43.190887 7.472992 10,800 321 274 -1664
2020-07-15 17:59:33 GMT 43.183868 7.480923 11,000 321 275 -1728
2020-07-15 17:59:30 GMT 43.180878 7.484371 11,075 321 275 -1664
2020-07-15 17:59:23 GMT 43.173798 7.492420 11,275 321 275 -1728
2020-07-15 17:59:20 GMT 43.170685 7.495880 11,375 321 275 -1664
2020-07-15 17:59:13 GMT 43.163979 7.503662 11,525 320 273 -1664
2020-07-15 17:59:10 GMT 43.160999 7.507063 11,650 320 269 -1728
2020-07-15 17:59:02 GMT 43.154251 7.514845 11,800 320 264 -1728
2020-07-15 17:58:59 GMT 43.151459 7.518049 11,925 321 258 -1088
2020-07-15 17:58:53 GMT 43.142395 7.528381 12,000 321 256 128
2020-07-15 17:58:49 GMT 43.142395 7.528381 12,000 321 256 64
2020-07-15 17:58:44 GMT 43.137211 7.534267 12,000 321 256 0
2020-07-15 17:58:40 GMT 43.133022 7.539041 12,000 321 256 64
2020-07-15 17:58:34 GMT 43.128181 7.544534 12,000 321 256 -64
2020-07-15 17:58:31 GMT 43.125229 7.547927 12,000 321 257 0
2020-07-15 17:58:24 GMT 43.119003 7.554953 12,000 321 256 0
2020-07-15 17:58:19 GMT 43.114334 7.560254 12,000 321 256 0
2020-07-15 17:58:14 GMT 43.109619 7.565620 12,000 321 255 0
2020-07-15 17:58:09 GMT 43.105042 7.570794 12,000 321 255 -64
2020-07-15 17:58:04 GMT 43.100437 7.575989 12,000 321 255 0
2020-07-15 17:57:59 GMT 43.096153 7.580828 12,000 321 254 0
2020-07-15 17:57:54 GMT 43.091358 7.586256 12,000 321 254 64
2020-07-15 17:57:48 GMT 43.086609 7.591618 12,000 321 254 0
2020-07-15 17:57:43 GMT 43.081970 7.596918 12,000 321 254 0
2020-07-15 17:57:38 GMT 43.077579 7.601885 12,000 321 254 0
2020-07-15 17:57:34 GMT 43.072971 7.607117 12,000 321 252 0
2020-07-15 17:57:28 GMT 43.068008 7.612631 12,000 321 253 64
2020-07-15 17:57:23 GMT 43.063934 7.617230 12,000 321 253 0
2020-07-15 17:57:18 GMT 43.059402 7.622340 12,000 321 253 -64
2020-07-15 17:57:13 GMT 43.054581 7.627781 12,000 321 252 0
2020-07-15 17:57:08 GMT 43.050385 7.632496 12,000 321 252 0
2020-07-15 17:57:03 GMT 43.045273 7.638179 12,000 321 252 0
2020-07-15 17:56:59 GMT 43.041687 7.642205 12,000 321 252 0
2020-07-15 17:56:53 GMT 43.036613 7.647923 12,000 321 252 -64
2020-07-15 17:56:49 GMT 43.027130 7.658557 12,000 321 252 0
2020-07-15 17:56:43 GMT 43.027130 7.658557 12,000 321 252 0
2020-07-15 17:56:37 GMT 43.021729 7.664625 12,000 321 252 64
2020-07-15 17:56:32 GMT 43.017929 7.668904 12,000 321 253 0
2020-07-15 17:56:27 GMT 43.013523 7.673819 12,000 321 254 0
2020-07-15 17:56:22 GMT 43.008820 7.679116 12,000 321 254 0
2020-07-15 17:56:16 GMT 43.002628 7.686048 12,000 321 254 0
2020-07-15 17:56:12 GMT 42.999527 7.689599 12,000 321 253 0
2020-07-15 17:56:07 GMT 42.994537 7.695220 12,000 321 253 0
2020-07-15 17:56:03 GMT 42.990711 7.699520 12,000 321 253 64
2020-07-15 17:55:57 GMT 42.985703 7.705185 12,000 321 252 0
2020-07-15 17:55:52 GMT 42.981491 7.709975 12,000 321 252 0
2020-07-15 17:55:46 GMT 42.976135 7.715979 12,000 321 252 0
2020-07-15 17:55:42 GMT 42.972466 7.720054 12,000 321 252 0
2020-07-15 17:55:37 GMT 42.967670 7.725481 12,000 321 252 0
2020-07-15 17:55:32 GMT 42.963226 7.730479 12,000 321 252 64
2020-07-15 17:55:27 GMT 42.958694 7.735589 12,000 321 252 0
2020-07-15 17:55:22 GMT 42.953842 7.741082 12,000 321 252 0
2020-07-15 17:55:16 GMT 42.948723 7.746800 12,000 321 252 0
2020-07-15 17:55:11 GMT 42.944763 7.751312 12,000 321 252 -64
2020-07-15 17:55:01 GMT 42.935734 7.761448 12,000 321 252 0
2020-07-15 17:54:55 GMT 42.930054 7.767792 12,000 321 252 0
2020-07-15 17:54:51 GMT 42.926605 7.771741 12,000 321 252 -64
2020-07-15 17:54:44 GMT 42.920139 7.778974 12,000 321 252 0
2020-07-15 17:54:35 GMT 42.912224 7.787868 12,000 321 252 0
2020-07-15 17:54:24 GMT 42.902077 7.799312 12,000 321 252 0
2020-07-15 17:54:14 GMT 42.893005 7.809491 12,000 321 252 0
2020-07-15 17:54:04 GMT 42.883736 7.819846 12,000 321 252 0
2020-07-15 17:53:53 GMT 42.874512 7.830186 12,000 321 252 0
2020-07-15 17:53:46 GMT 42.867096 7.838426 12,000 321 252 0
2020-07-15 17:53:43 GMT 42.865173 7.840534 12,000 321 252 64
2020-07-15 17:53:33 GMT 42.856224 7.850582 12,000 321 252 0
2020-07-15 17:53:23 GMT 42.847099 7.860783 12,000 321 252 0
2020-07-15 17:53:14 GMT 42.838116 7.870919 12,000 321 252 0
2020-07-15 17:53:02 GMT 42.828186 7.882052 12,000 321 252 0
2020-07-15 17:52:55 GMT 42.821411 7.889589 12,000 321 252 -64
2020-07-15 17:52:51 GMT 42.818710 7.892655 12,000 321 252 64
2020-07-15 17:52:44 GMT 42.811844 7.900320 12,000 321 253 64
2020-07-15 17:52:41 GMT 42.809532 7.902897 12,000 321 253 0
2020-07-15 17:52:34 GMT 42.801849 7.911498 12,000 321 253 0
2020-07-15 17:52:31 GMT 42.800171 7.913340 12,000 321 253 0
2020-07-15 17:52:21 GMT 42.791016 7.923577 12,000 321 253 0
2020-07-15 17:52:11 GMT 42.781788 7.933790 12,000 321 253 0
2020-07-15 17:52:02 GMT 42.774014 7.942476 12,000 321 253 -64
2020-07-15 17:51:59 GMT 42.770939 7.945862 12,000 321 253 0
2020-07-15 17:51:52 GMT 42.765026 7.952441 12,000 321 253 0
2020-07-15 17:51:49 GMT 42.762360 7.955412 12,000 321 253 0
2020-07-15 17:51:43 GMT 42.755768 7.962778 12,000 321 252 0
2020-07-15 17:51:39 GMT 42.753437 7.965343 12,000 321 252 0
2020-07-15 17:51:32 GMT 42.746796 7.972766 12,000 321 253 0
2020-07-15 17:51:28 GMT 42.743454 7.976449 12,000 321 252 0
2020-07-15 17:51:22 GMT 42.735001 7.985847 12,000 321 252 0
2020-07-15 17:51:12 GMT 42.728256 7.993365 12,000 321 253 0
2020-07-15 17:51:02 GMT 42.719193 8.003353 12,000 321 253 0
2020-07-15 17:50:51 GMT 42.709717 8.013777 12,000 321 253 0
2020-07-15 17:50:41 GMT 42.700836 8.023578 12,000 321 253 64
2020-07-15 17:50:32 GMT 42.691799 8.033561 12,000 321 252 -64
2020-07-15 17:50:21 GMT 42.682442 8.043781 12,000 321 252 -64
2020-07-15 17:50:12 GMT 42.673187 8.053977 12,000 321 251 -64
2020-07-15 17:50:01 GMT 42.664196 8.063901 12,000 321 251 0
2020-07-15 17:49:51 GMT 42.655209 8.073993 12,000 320 251 0
2020-07-15 17:49:41 GMT 42.646366 8.084149 12,000 320 251 0
2020-07-15 17:49:34 GMT 42.639942 8.091750 12,000 319 250 0
2020-07-15 17:49:31 GMT 42.637253 8.094864 12,000 319 251 -64
2020-07-15 17:49:26 GMT 42.633591 8.099296 12,000 319 251 0
2020-07-15 17:49:21 GMT 42.628601 8.105413 12,000 318 251 0
2020-07-15 17:49:17 GMT 42.625046 8.109763 12,000 318 250 0
2020-07-15 17:49:11 GMT 42.620132 8.115900 12,000 318 249 -64
2020-07-15 17:49:06 GMT 42.616432 8.120557 12,000 317 249 64
2020-07-15 17:49:00 GMT 42.610847 8.127583 12,000 317 249 64
2020-07-15 17:48:50 GMT 42.602795 8.137675 12,000 318 249 64
2020-07-15 17:48:41 GMT 42.593765 8.148422 11,975 321 250 0
2020-07-15 17:48:30 GMT 42.584564 8.157786 12,000 327 252 -64
2020-07-15 17:48:20 GMT 42.574394 8.165652 12,000 333 254 0
2020-07-15 17:48:13 GMT 42.567459 8.170571 12,000 333 254 0
2020-07-15 17:48:10 GMT 42.563595 8.173317 12,000 333 254 -64
2020-07-15 17:48:05 GMT 42.558334 8.177074 12,000 333 254 0
2020-07-15 17:48:00 GMT 42.553493 8.180471 12,000 333 254 0
2020-07-15 17:47:49 GMT 42.542553 8.188264 12,000 333 253 0
2020-07-15 17:47:39 GMT 42.531784 8.195801 12,000 333 253 0
2020-07-15 17:47:29 GMT 42.521091 8.203274 12,000 333 253 64
2020-07-15 17:47:19 GMT 42.510956 8.210408 12,000 333 253 -64
2020-07-15 17:47:10 GMT 42.500656 8.217586 12,000 333 253 0
2020-07-15 17:46:58 GMT 42.489441 8.225451 12,000 333 252 0
2020-07-15 17:46:49 GMT 42.479614 8.232337 12,000 333 252 0
2020-07-15 17:46:39 GMT 42.468704 8.240058 12,000 333 252 64
2020-07-15 17:46:28 GMT 42.458435 8.247347 12,000 333 252 0
2020-07-15 17:46:15 GMT 42.444237 8.257375 12,000 333 252 64
2020-07-15 17:46:08 GMT 42.437580 8.262102 12,000 333 252 0
2020-07-15 17:45:54 GMT 42.422356 8.272769 12,000 333 252 64
2020-07-15 17:45:48 GMT 42.416676 8.276729 12,000 333 252 0
2020-07-15 17:45:39 GMT 42.406200 8.284075 12,000 333 251 -64
2020-07-15 17:45:28 GMT 42.396008 8.291292 12,000 333 250 64
2020-07-15 17:45:17 GMT 42.384979 8.299047 12,000 333 250 0
2020-07-15 17:45:08 GMT 42.374817 8.306163 12,000 333 250 0
2020-07-15 17:44:55 GMT 42.362000 8.315152 12,000 333 249 0
2020-07-15 17:44:47 GMT 42.353367 8.321249 12,000 333 248 0
2020-07-15 17:44:37 GMT 42.343681 8.328084 12,000 333 247 -64
2020-07-15 17:44:27 GMT 42.333618 8.335127 12,000 333 246 0
2020-07-15 17:44:18 GMT 42.323364 8.342368 12,000 333 243 0
2020-07-15 17:44:07 GMT 42.313385 8.349360 12,000 333 241 0
2020-07-15 17:43:55 GMT 42.301132 8.357977 12,000 333 238 -64
2020-07-15 17:43:45 GMT 42.292236 8.364216 12,000 333 235 0
2020-07-15 17:43:37 GMT 42.283722 8.370177 12,000 333 232 0
2020-07-15 17:43:27 GMT 42.274647 8.376500 12,000 333 227 0
2020-07-15 17:43:16 GMT 42.264908 8.383255 12,000 333 222 0
2020-07-15 17:43:06 GMT 42.255558 8.389722 12,000 333 216 0
2020-07-15 17:42:57 GMT 42.247101 8.395615 12,000 333 211 0
2020-07-15 17:42:47 GMT 42.237778 8.402114 12,000 333 206 0
2020-07-15 17:42:36 GMT 42.229523 8.407849 12,000 333 198 64
2020-07-15 17:42:29 GMT 42.223892 8.411782 11,975 333 193 512
2020-07-15 17:42:26 GMT 42.221436 8.413483 11,925 333 191 832
2020-07-15 17:42:14 GMT 42.212082 8.419959 11,800 333 191 704
2020-07-15 17:42:08 GMT 42.207230 8.423393 11,725 333 190 768
2020-07-15 17:42:05 GMT 42.205143 8.424853 11,700 333 190 768
2020-07-15 17:41:48 GMT 42.192169 8.433880 11,475 333 189 832
2020-07-15 17:41:45 GMT 42.189690 8.435584 11,425 333 189 832
2020-07-15 17:41:35 GMT 42.181732 8.441120 11,275 333 189 896
2020-07-15 17:41:26 GMT 42.174000 8.446442 11,125 333 189 960
2020-07-15 17:41:15 GMT 42.166412 8.451744 10,950 333 189 960
2020-07-15 17:41:03 GMT 42.157196 8.458162 10,775 333 189 896
2020-07-15 17:40:55 GMT 42.150398 8.462858 10,650 333 187 832
2020-07-15 17:40:45 GMT 42.142822 8.468149 10,525 333 186 832
2020-07-15 17:40:35 GMT 42.135269 8.473393 10,375 333 186 960
2020-07-15 17:40:24 GMT 42.127308 8.478954 10,225 333 186 896
2020-07-15 17:40:14 GMT 42.119568 8.484379 10,075 333 186 832
2020-07-15 17:40:05 GMT 42.111969 8.489623 9,950 333 184 768
2020-07-15 17:39:54 GMT 42.103958 8.495178 9,800 333 183 832
2020-07-15 17:39:40 GMT 42.093510 8.502396 9,600 333 182 960
2020-07-15 17:39:02 GMT 42.064728 8.522207 8,900 333 184 960
2020-07-15 17:38:53 GMT 42.058136 8.526764 8,750 333 184 1088
2020-07-15 17:38:26 GMT 42.037697 8.540720 8,325 334 184 896
2020-07-15 17:36:12 GMT 41.937702 8.609704 5,950 334 175 960
2020-07-15 17:33:40 GMT 41.883793 8.711200 3,225 282 138 1600

Making use of Plane Finder data

You are free to use the raw flight data, aircraft information and images provided in this report for your own purposes provided the data is correctly attributed to Plane Finder. We ask that you please credit Plane Finder and link to planefinder.net in close proximity to the content.

Optionally one of the following logos (no smaller then 150x24px) can be used and must link to planefinder.net

Embedding the Plane Finder map

You are welcome to embed the Plane Finder playback map on your website to offer visitors a more interactive experience. We suggest using the following HTML code:

<iframe src="//planefinder.net/data/report/XK102-F-GRPJ-7700-squawk-2020-07-15/map" width="800" height="600" seamless="seamless"></iframe>

Where our data comes from

Plane Finder has a global network of data feeds and antenna radars that receive data broadcast directly from aircraft. The primary technologies used are ADS-B and MLAT. We also show feeds from the FAA and a FLARM glider feed.

Click here to find out more about the Plane Finder network.

How we collect our data